createdAt,value
2023-04-06T00:03:24.983Z,99.99
2023-04-06T00:07:27.118Z,99.99
2023-04-06T00:11:28.697Z,99.99
2023-04-06T00:15:30.527Z,99.99
2023-04-06T00:19:32.321Z,99.99
2023-04-06T00:23:33.935Z,99.99
2023-04-06T00:27:35.484Z,99.99
2023-04-06T00:31:37.204Z,99.99
2023-04-06T00:35:39.765Z,99.99
2023-04-06T00:39:41.451Z,99.99
2023-04-06T00:43:43.185Z,99.99
2023-04-06T00:47:44.783Z,99.99
2023-04-06T00:51:46.420Z,99.99
2023-04-06T00:55:49.095Z,99.99
2023-04-06T00:59:51.328Z,99.99
2023-04-06T01:03:54.276Z,99.99
2023-04-06T01:07:56.583Z,99.99
2023-04-06T01:12:01.992Z,99.99
2023-04-06T01:16:06.672Z,99.99
2023-04-06T01:20:20.739Z,99.99
2023-04-06T01:24:22.870Z,99.99
2023-04-06T01:28:40.570Z,99.99
2023-04-06T01:32:57.307Z,99.99
2023-04-06T01:37:33.582Z,99.99
2023-04-06T01:41:38.280Z,99.99
2023-04-06T01:45:40.391Z,99.99
2023-04-06T01:49:51.096Z,99.99
2023-04-06T01:53:56.179Z,99.99
2023-04-06T01:58:05.421Z,99.99
2023-04-06T02:02:13.934Z,99.99
2023-04-06T02:06:19.749Z,99.99
2023-04-06T02:10:23.073Z,99.99
2023-04-06T02:14:26.740Z,99.99
2023-04-06T02:18:32.171Z,99.99
2023-04-06T02:22:33.726Z,99.99
2023-04-06T02:26:35.400Z,99.99
2023-04-06T02:30:36.973Z,99.99
2023-04-06T02:34:40.209Z,99.99
2023-04-06T02:38:41.978Z,99.99
2023-04-06T02:42:43.643Z,99.99
2023-04-06T02:46:47.030Z,99.99
2023-04-06T02:50:48.740Z,99.99
2023-04-06T02:54:52.118Z,99.99
2023-04-06T02:58:59.923Z,99.99
2023-04-06T03:03:05.088Z,99.99
2023-04-06T03:07:06.971Z,99.99
2023-04-06T03:11:12.269Z,99.99
2023-04-06T03:15:16.663Z,99.99
2023-04-06T03:19:23.717Z,99.99
2023-04-06T03:23:25.810Z,99.99
2023-04-06T03:27:34.659Z,99.99
2023-04-06T03:31:37.917Z,99.99
2023-04-06T03:35:54.872Z,99.99
2023-04-06T03:39:59.304Z,99.99
2023-04-06T03:44:01.182Z,99.99
2023-04-06T03:48:03.176Z,99.99
2023-04-06T03:52:07.683Z,99.99
2023-04-06T03:56:09.359Z,99.99
2023-04-06T04:00:11.662Z,99.99
2023-04-06T04:04:16.418Z,99.99
2023-04-06T04:08:18.008Z,99.99
2023-04-06T04:12:19.824Z,99.99
2023-04-06T04:16:21.466Z,99.99
2023-04-06T04:20:23.232Z,99.99
2023-04-06T04:24:25.139Z,99.99
2023-04-06T04:28:26.822Z,99.99
2023-04-06T04:32:31.433Z,99.99
2023-04-06T04:36:35.261Z,99.99
2023-04-06T04:40:41.253Z,99.99
2023-04-06T04:44:44.873Z,99.99
2023-04-06T04:48:46.880Z,99.99
2023-04-06T04:52:49.334Z,99.99
2023-04-06T04:56:59.710Z,99.99
2023-04-06T05:01:13.154Z,99.99
2023-04-06T05:05:16.859Z,99.99
2023-04-06T05:09:18.923Z,99.99
2023-04-06T05:13:21.105Z,99.99
2023-04-06T05:17:24.791Z,99.99
2023-04-06T05:21:28.744Z,99.99
2023-04-06T05:25:34.999Z,99.99
2023-04-06T05:29:47.098Z,99.99
2023-04-06T05:33:50.704Z,99.99
2023-04-06T05:38:00.409Z,99.99
2023-04-06T05:42:06.627Z,99.99
2023-04-06T05:46:22.686Z,99.99
2023-04-06T05:50:25.038Z,99.99
2023-04-06T05:54:27.026Z,99.99
2023-04-06T05:58:34.822Z,99.99
2023-04-06T06:02:37.856Z,99.99
2023-04-06T06:06:39.999Z,99.99
2023-04-06T06:10:53.803Z,99.99
2023-04-06T06:14:58.203Z,99.99
2023-04-06T06:19:02.243Z,99.99
2023-04-06T06:23:04.418Z,99.99
2023-04-06T06:27:08.696Z,99.99
2023-04-06T06:31:12.127Z,99.99
2023-04-06T06:35:14.083Z,99.99
2023-04-06T06:39:15.772Z,99.99
2023-04-06T06:43:18.098Z,99.99
2023-04-06T06:47:27.193Z,99.99
2023-04-06T06:51:28.964Z,99.99
2023-04-06T06:55:30.887Z,99.99
2023-04-06T06:59:32.829Z,99.99
2023-04-06T07:03:35.639Z,99.99
2023-04-06T07:07:37.409Z,99.99
2023-04-06T07:11:39.238Z,99.99
2023-04-06T07:15:41.210Z,99.99
2023-04-06T07:19:42.993Z,99.99
2023-04-06T07:23:45.261Z,99.99
2023-04-06T07:27:46.859Z,99.99
2023-04-06T07:31:50.106Z,99.99
2023-04-06T07:35:53.386Z,99.99
2023-04-06T07:39:55.268Z,99.99
2023-04-06T07:43:57.236Z,99.99
2023-04-06T07:47:59.023Z,99.99
2023-04-06T07:52:03.976Z,99.99
2023-04-06T07:56:06.601Z,99.99
2023-04-06T08:00:10.676Z,99.99
2023-04-06T08:04:15.308Z,99.99
2023-04-06T08:08:17.316Z,99.99
2023-04-06T08:12:18.972Z,99.99
2023-04-06T08:16:20.773Z,99.99
2023-04-06T08:20:22.348Z,99.99
2023-04-06T08:24:23.938Z,99.99
2023-04-06T08:28:25.628Z,99.99
2023-04-06T08:32:27.232Z,99.99
2023-04-06T08:36:28.861Z,99.99
2023-04-06T08:40:30.713Z,99.99
2023-04-06T08:44:33.501Z,99.99
2023-04-06T08:48:36.319Z,99.99
2023-04-06T08:52:38.975Z,99.99
2023-04-06T08:56:41.291Z,99.99
2023-04-06T09:00:43.236Z,99.99
2023-04-06T09:04:48.926Z,99.99
2023-04-06T09:08:50.581Z,99.99
2023-04-06T09:12:52.248Z,99.99
2023-04-06T09:16:53.825Z,99.99
2023-04-06T09:21:08.986Z,99.99
2023-04-06T09:25:11.661Z,99.99
2023-04-06T09:29:24.771Z,99.99
2023-04-06T09:33:26.500Z,99.99
2023-04-06T09:37:29.112Z,99.99
2023-04-06T09:41:33.073Z,99.99
2023-04-06T09:45:34.846Z,99.99
2023-04-06T09:49:36.565Z,99.99
2023-04-06T09:53:42.782Z,99.99
2023-04-06T09:57:53.725Z,99.99
2023-04-06T10:01:58.010Z,99.99
2023-04-06T10:06:06.326Z,99.99
2023-04-06T10:10:09.136Z,99.99
2023-04-06T10:14:12.711Z,99.99
2023-04-06T10:18:14.907Z,99.99
2023-04-06T10:22:27.489Z,99.99
2023-04-06T10:26:29.240Z,99.99
2023-04-06T10:30:31.036Z,99.99
2023-04-06T10:34:36.691Z,99.99
2023-04-06T10:38:41.716Z,99.99
2023-04-06T10:42:43.627Z,99.99
2023-04-06T10:46:56.962Z,99.99
2023-04-06T10:50:58.580Z,99.74
2023-04-06T10:55:00.506Z,97.45
2023-04-06T10:59:02.213Z,98.77
2023-04-06T11:03:04.296Z,97.09
2023-04-06T11:07:06.312Z,95.32
2023-04-06T11:11:10.640Z,95.48
2023-04-06T11:15:12.273Z,92.68
2023-04-06T11:19:13.854Z,91.11
2023-04-06T11:23:23.769Z,92.33
2023-04-06T11:27:26.437Z,91.99
2023-04-06T11:31:28.124Z,92.09
2023-04-06T11:35:32.308Z,91.78
2023-04-06T11:39:44.383Z,91.43
2023-04-06T11:43:48.856Z,90.42
2023-04-06T11:48:02.335Z,89.00
2023-04-06T11:52:04.072Z,89.91
2023-04-06T11:56:05.961Z,89.56
2023-04-06T12:00:10.425Z,88.24
2023-04-06T12:04:12.070Z,86.47
2023-04-06T12:08:13.721Z,86.83
2023-04-06T12:12:15.453Z,87.85
2023-04-06T12:16:17.380Z,88.87
2023-04-06T12:20:26.444Z,87.65
2023-04-06T12:24:29.672Z,85.92
2023-04-06T12:28:31.359Z,87.24
2023-04-06T12:32:33.026Z,85.98
2023-04-06T12:36:34.795Z,84.32
2023-04-06T12:40:40.052Z,84.63
2023-04-06T12:44:43.552Z,84.52
2023-04-06T12:48:45.538Z,83.87
2023-04-06T12:52:48.255Z,82.66
2023-04-06T12:56:49.877Z,82.72
2023-04-06T13:00:51.773Z,82.78
2023-04-06T13:04:53.485Z,82.14
2023-04-06T13:08:55.841Z,81.43
2023-04-06T13:12:57.443Z,81.69
2023-04-06T13:16:59.042Z,79.57
2023-04-06T13:21:00.788Z,80.01
2023-04-06T13:25:02.422Z,79.80
2023-04-06T13:29:04.193Z,79.10
2023-04-06T13:33:07.327Z,79.40
2023-04-06T13:37:09.005Z,79.60
2023-04-06T13:41:10.790Z,79.60
2023-04-06T13:45:12.708Z,79.50
2023-04-06T13:49:14.811Z,78.69
2023-04-06T13:53:16.830Z,78.59
2023-04-06T13:57:18.376Z,79.34
2023-04-06T14:01:20.061Z,79.64
2023-04-06T14:05:22.282Z,78.89
2023-04-06T14:09:23.907Z,80.01
2023-04-06T14:13:25.479Z,78.89
2023-04-06T14:17:27.090Z,80.15
2023-04-06T14:21:28.739Z,79.85
2023-04-06T14:25:32.453Z,79.13
2023-04-06T14:29:34.091Z,77.92
2023-04-06T14:33:36.180Z,78.22
2023-04-06T14:37:37.840Z,76.97
2023-04-06T14:41:39.371Z,77.28
2023-04-06T14:45:41.065Z,76.67
2023-04-06T14:49:42.649Z,76.36
2023-04-06T14:53:44.592Z,76.26
2023-04-06T14:57:46.337Z,77.17
2023-04-06T15:01:48.013Z,76.36
2023-04-06T15:05:49.654Z,77.58
2023-04-06T15:09:51.247Z,76.63
2023-04-06T15:13:52.743Z,76.83
2023-04-06T15:17:54.438Z,76.67
2023-04-06T15:21:56.154Z,76.56
2023-04-06T15:25:58.748Z,77.78
2023-04-06T15:30:00.493Z,78.19
2023-04-06T15:34:02.059Z,78.53
2023-04-06T15:38:03.632Z,79.13
2023-04-06T15:42:05.290Z,80.39
2023-04-06T15:50:10.249Z,82.15
2023-04-06T15:54:11.769Z,81.95
2023-04-06T15:58:13.379Z,82.05
2023-04-06T16:02:15.108Z,83.00
2023-04-06T16:06:16.833Z,83.00
2023-04-06T16:10:18.365Z,83.45
2023-04-06T16:14:19.934Z,84.16
2023-04-06T16:18:21.516Z,85.38
2023-04-06T16:22:23.093Z,85.58
2023-04-06T16:26:24.703Z,86.39
2023-04-06T16:30:26.649Z,87.10
2023-04-06T16:34:32.799Z,90.39
2023-04-06T16:38:35.712Z,90.64
2023-04-06T16:42:37.966Z,90.03
2023-04-06T16:46:39.732Z,89.36
2023-04-06T16:50:41.405Z,89.97
2023-04-06T16:54:42.986Z,90.68
2023-04-06T16:58:46.038Z,92.51
2023-04-06T17:02:47.862Z,93.52
2023-04-06T17:06:50.012Z,93.67
2023-04-06T17:10:59.155Z,94.28
2023-04-06T17:15:04.696Z,94.89
2023-04-06T17:19:06.349Z,95.81
2023-04-06T17:23:07.872Z,96.87
2023-04-06T17:27:09.458Z,97.07
2023-04-06T17:31:12.372Z,96.97
2023-04-06T17:35:14.010Z,97.38
2023-04-06T17:39:15.557Z,98.34
2023-04-06T17:43:17.141Z,99.26
2023-04-06T17:47:18.710Z,99.97
2023-04-06T17:51:21.494Z,99.99
2023-04-06T17:55:23.162Z,99.99
2023-04-06T17:59:24.640Z,99.99
2023-04-06T18:03:26.230Z,99.99
2023-04-06T18:07:27.927Z,99.99
2023-04-06T18:11:31.058Z,99.99
2023-04-06T18:15:35.142Z,99.99
2023-04-06T18:19:36.716Z,99.99
2023-04-06T18:23:38.584Z,99.99
2023-04-06T18:27:40.378Z,99.99
2023-04-06T18:31:43.697Z,99.99
2023-04-06T18:35:45.349Z,99.99
2023-04-06T18:39:46.934Z,99.99
2023-04-06T18:43:49.230Z,99.99
2023-04-06T18:47:51.007Z,99.99
2023-04-06T18:51:53.625Z,99.99
2023-04-06T18:55:59.180Z,99.99
2023-04-06T19:00:03.294Z,99.99
2023-04-06T19:04:05.128Z,99.99
2023-04-06T19:08:06.781Z,99.99
2023-04-06T19:12:08.482Z,99.99
2023-04-06T19:16:10.902Z,99.99
2023-04-06T19:20:12.625Z,99.99
2023-04-06T19:24:14.251Z,99.99
2023-04-06T19:28:15.904Z,99.99
2023-04-06T19:32:17.631Z,99.99
2023-04-06T19:36:19.519Z,99.99
2023-04-06T19:40:21.319Z,99.99
2023-04-06T19:44:23.559Z,99.99
2023-04-06T19:48:25.613Z,99.99
2023-04-06T19:52:28.167Z,99.99
2023-04-06T19:56:31.427Z,99.99
2023-04-06T20:00:33.136Z,99.99
2023-04-06T20:04:35.381Z,99.99
2023-04-06T20:08:37.043Z,99.99
2023-04-06T20:12:39.128Z,99.99
2023-04-06T20:16:41.031Z,99.99
2023-04-06T20:20:44.609Z,99.99
2023-04-06T20:24:46.441Z,99.99
2023-04-06T20:28:48.523Z,99.99
2023-04-06T20:32:50.234Z,99.99
2023-04-06T20:36:51.948Z,99.99
2023-04-06T20:40:54.216Z,99.99
2023-04-06T20:44:56.990Z,99.99
2023-04-06T20:48:59.246Z,99.99
2023-04-06T20:53:00.826Z,99.99
2023-04-06T20:57:02.814Z,99.99
2023-04-06T21:01:04.378Z,99.99
2023-04-06T21:05:06.464Z,99.99
2023-04-06T21:09:08.110Z,99.99
2023-04-06T21:13:09.735Z,99.99
2023-04-06T21:17:11.604Z,99.99
2023-04-06T21:21:13.237Z,99.99
2023-04-06T21:25:15.270Z,99.99
2023-04-06T21:29:16.972Z,99.99
2023-04-06T21:33:18.693Z,99.99
2023-04-06T21:37:20.320Z,99.99
2023-04-06T21:41:21.914Z,99.99
2023-04-06T21:45:23.529Z,99.99
2023-04-06T21:49:25.171Z,99.99
2023-04-06T21:53:26.833Z,99.99
2023-04-06T21:57:28.393Z,99.99
2023-04-06T22:01:30.044Z,99.99
2023-04-06T22:05:32.269Z,99.99
2023-04-06T22:09:33.900Z,99.99
2023-04-06T22:13:36.179Z,99.99
2023-04-06T22:17:37.780Z,99.99
2023-04-06T22:21:39.479Z,99.99
2023-04-06T22:25:41.030Z,99.99
2023-04-06T22:29:42.630Z,99.99
2023-04-06T22:33:44.184Z,99.99
2023-04-06T22:37:45.835Z,99.99
2023-04-06T22:41:47.414Z,99.99
2023-04-06T22:45:49.006Z,99.99
2023-04-06T22:49:50.630Z,99.99
2023-04-06T22:53:52.158Z,99.99
2023-04-06T22:57:53.714Z,99.99
2023-04-06T23:01:56.770Z,99.99
2023-04-06T23:05:58.432Z,99.99
2023-04-06T23:10:00.409Z,99.99
2023-04-06T23:14:02.002Z,99.99
2023-04-06T23:18:03.805Z,99.99
2023-04-06T23:22:05.452Z,99.99
2023-04-06T23:26:07.201Z,99.99
2023-04-06T23:30:09.517Z,99.99
2023-04-06T23:34:11.096Z,99.99
2023-04-06T23:38:12.715Z,99.99
2023-04-06T23:42:14.272Z,99.99
2023-04-06T23:46:17.052Z,99.99
2023-04-06T23:50:18.655Z,99.99
2023-04-06T23:54:20.246Z,99.99
2023-04-06T23:58:21.869Z,99.99
